Time;durP1;ratioP1;P1;durP2;ratioP2;P2;SDS_P1;SDS_P2;PMS_P1;PMS_P2;Temp;Humidity;BMP_temperature;BMP_pressure;BME280_temperature;BME280_humidity;BME280_pressure;Samples;Min_cycle;Max_cycle;Signal;HPM_P1;HPM_P2
2022/09/07 00:01:21;;;;;;;;;13.20;12.00;;;;;24.98;44.63;99508.63;5017174;28;8876;-77
2022/09/07 00:03:54;;;;;;;;;12.40;11.60;;;;;25.04;44.73;99510.91;5067750;28;8858;-75
2022/09/07 00:06:24;;;;;;;;;10.00;10.00;;;;;25.03;44.57;99500.38;5067748;28;8894;-76
2022/09/07 00:08:52;;;;;;;;;11.40;11.40;;;;;25.03;44.27;99505.72;5102338;28;8938;-75
2022/09/07 00:11:21;;;;;;;;;10.60;10.00;;;;;24.97;44.52;99496.25;5068085;28;8870;-74
2022/09/07 00:13:50;;;;;;;;;12.00;10.60;;;;;24.99;44.23;99494.34;5067865;28;8842;-75
2022/09/07 00:16:22;;;;;;;;;11.80;11.60;;;;;25.02;43.92;99493.31;5071686;28;8855;-77
2022/09/07 00:18:54;;;;;;;;;13.40;12.60;;;;;25.07;44.10;99485.88;5104413;28;8870;-76
2022/09/07 00:21:24;;;;;;;;;11.20;10.00;;;;;25.03;43.76;99492.38;5089068;28;8922;-76
2022/09/07 00:23:53;;;;;;;;;12.40;11.40;;;;;25.04;43.71;99494.06;5088968;28;8966;-76
2022/09/07 00:26:23;;;;;;;;;15.00;12.00;;;;;25.05;43.57;99490.47;5103799;28;9644;-77
2022/09/07 00:28:52;;;;;;;;;11.00;11.00;;;;;25.10;43.53;99486.56;5101068;28;8940;-75
2022/09/07 00:31:22;;;;;;;;;12.20;12.20;;;;;25.13;43.39;99492.66;5067775;28;8921;-77
2022/09/07 00:33:54;;;;;;;;;13.40;12.60;;;;;25.22;43.46;99484.09;5088442;28;8952;-75
2022/09/07 00:36:23;;;;;;;;;8.60;8.60;;;;;25.20;43.12;99483.28;5087732;28;8932;-77
2022/09/07 00:38:51;;;;;;;;;10.80;10.80;;;;;25.18;43.59;99474.53;5121792;27;8968;-75
2022/09/07 00:41:21;;;;;;;;;9.00;9.00;;;;;25.20;43.18;99478.84;5084167;28;9568;-74
2022/09/07 00:43:52;;;;;;;;;10.00;10.00;;;;;25.15;43.44;99469.41;5084395;28;8962;-77
2022/09/07 00:46:23;;;;;;;;;10.00;10.00;;;;;25.16;43.47;99466.63;5084245;28;9782;-77
2022/09/07 00:49:00;;;;;;;;;10.80;10.80;;;;;25.15;43.53;99458.72;5079439;28;8839;-75
2022/09/07 00:51:33;;;;;;;;;11.60;11.20;;;;;25.11;43.75;99458.03;5089693;28;8870;-76
2022/09/07 00:54:07;;;;;;;;;9.00;9.00;;;;;25.08;43.63;99464.44;5057592;28;8874;-76
2022/09/07 00:56:39;;;;;;;;;8.60;8.60;;;;;25.10;43.81;99461.66;5083562;28;8878;-75
2022/09/07 00:59:11;;;;;;;;;10.80;10.60;;;;;25.10;43.51;99467.00;5066774;28;8915;-77
2022/09/07 01:01:39;;;;;;;;;11.20;11.20;;;;;25.08;43.86;99463.56;5068057;28;8866;-76
2022/09/07 01:04:10;;;;;;;;;10.40;9.00;;;;;25.10;44.07;99467.00;5068317;28;9639;-74
2022/09/07 01:06:41;;;;;;;;;11.40;10.20;;;;;25.08;44.01;99469.78;5083779;28;8851;-77
2022/09/07 01:09:13;;;;;;;;;9.60;9.60;;;;;25.12;43.85;99466.91;5038568;28;8889;-77
2022/09/07 01:11:44;;;;;;;;;11.20;10.60;;;;;25.10;43.94;99470.53;5092126;28;8931;-78
2022/09/07 01:14:15;;;;;;;;;11.20;11.20;;;;;25.10;43.93;99470.53;5093136;28;8875;-78
2022/09/07 01:16:58;;;;;;;;;11.40;11.40;;;;;25.15;43.81;99464.06;5088473;28;8858;-77
2022/09/07 01:20:00;;;;;;;;;11.80;11.80;;;;;25.17;43.72;99467.47;5036873;28;8972;-75
2022/09/07 01:22:54;;;;;;;;;10.20;10.20;;;;;25.18;43.72;99461.19;5071590;28;9603;-74
2022/09/07 01:25:36;;;;;;;;;11.00;11.00;;;;;25.15;44.04;99470.25;5070845;28;8960;-75
2022/09/07 01:28:13;;;;;;;;;11.20;9.80;;;;;25.17;43.73;99470.16;5055374;28;8876;-76
2022/09/07 01:30:51;;;;;;;;;11.00;9.60;;;;;25.18;43.82;99467.41;5073405;28;9580;-75
2022/09/07 01:33:33;;;;;;;;;9.60;9.60;;;;;25.14;43.92;99465.00;5063820;28;8844;-77
2022/09/07 01:36:15;;;;;;;;;10.00;10.00;;;;;25.15;43.90;99454.22;5091305;28;8952;-77
2022/09/07 01:38:47;;;;;;;;;12.40;11.20;;;;;25.09;44.23;99460.81;5091124;28;8839;-77
2022/09/07 01:41:23;;;;;;;;;10.00;10.00;;;;;25.12;44.19;99453.56;5080404;28;9374;-75
2022/09/07 01:44:00;;;;;;;;;12.00;11.60;;;;;25.04;44.36;99452.22;5125358;27;8858;-75
2022/09/07 01:46:34;;;;;;;;;11.20;10.20;;;;;24.99;44.12;99451.66;5090877;28;8865;-76
2022/09/07 01:49:10;;;;;;;;;10.40;9.80;;;;;24.96;44.25;99446.50;5072830;28;8850;-78
2022/09/07 01:51:44;;;;;;;;;12.00;12.00;;;;;24.99;44.30;99451.66;5072489;28;8973;-77
2022/09/07 01:54:19;;;;;;;;;8.80;8.80;;;;;24.94;44.70;99450.22;5113938;27;9624;-76
2022/09/07 01:56:52;;;;;;;;;11.80;10.80;;;;;24.93;44.75;99446.69;5074126;28;8859;-78
2022/09/07 01:59:30;;;;;;;;;11.20;10.20;;;;;24.95;44.70;99444.78;5075223;28;8923;-76
2022/09/07 02:02:06;;;;;;;;;11.20;11.00;;;;;24.90;44.76;99450.41;5071792;28;8846;-77
2022/09/07 02:04:41;;;;;;;;;14.20;13.20;;;;;24.83;45.28;99446.41;5089247;28;8834;-77
2022/09/07 02:07:15;;;;;;;;;12.00;11.20;;;;;24.80;45.04;99440.38;5072596;28;8884;-75
2022/09/07 02:09:51;;;;;;;;;11.40;10.20;;;;;24.83;45.18;99441.06;5056052;28;8842;-76
2022/09/07 02:12:24;;;;;;;;;12.00;12.00;;;;;24.80;45.26;99451.94;5036043;28;9482;-76
2022/09/07 02:14:59;;;;;;;;;10.40;10.40;;;;;24.80;45.11;99449.28;5069919;28;8842;-75
2022/09/07 02:17:33;;;;;;;;;11.00;10.60;;;;;24.84;45.29;99442.78;5086466;28;8892;-74
2022/09/07 02:20:09;;;;;;;;;9.20;9.20;;;;;24.86;45.14;99442.72;5070160;28;8860;-78
2022/09/07 02:22:41;;;;;;;;;10.80;10.00;;;;;24.84;45.22;99447.25;5104346;28;8959;-77
2022/09/07 02:25:17;;;;;;;;;11.60;11.20;;;;;24.81;45.37;99448.31;5103686;28;8850;-76
2022/09/07 02:27:50;;;;;;;;;16.00;11.40;;;;;24.75;45.50;99439.84;5086902;28;8842;-76
2022/09/07 02:30:20;;;;;;;;;12.40;10.80;;;;;24.73;45.89;99437.25;5051830;28;8868;-78
2022/09/07 02:32:49;;;;;;;;;10.60;10.60;;;;;24.69;46.02;99438.41;5071046;28;8842;-75
2022/09/07 02:35:18;;;;;;;;;13.40;12.20;;;;;24.67;45.75;99437.63;5069625;28;9620;-75
2022/09/07 02:37:49;;;;;;;;;13.80;12.60;;;;;24.61;46.19;99436.19;5071172;28;9728;-76
2022/09/07 02:40:18;;;;;;;;;13.40;12.80;;;;;24.56;46.13;99434.75;5069431;28;8846;-76
2022/09/07 02:42:49;;;;;;;;;11.20;9.60;;;;;24.55;46.02;99423.22;5069612;28;8878;-77
2022/09/07 02:45:18;;;;;;;;;12.00;10.60;;;;;24.48;46.36;99421.81;5118374;27;8889;-77
2022/09/07 02:48:07;;;;;;;;;11.40;11.20;;;;;24.44;46.81;99421.19;5085876;28;8882;-75
2022/09/07 02:50:57;;;;;;;;;11.40;11.40;;;;;24.44;46.42;99429.19;5088761;28;8847;-78
2022/09/07 02:53:40;;;;;;;;;12.60;10.20;;;;;24.38;46.77;99421.53;5123803;27;9566;-76
2022/09/07 02:56:20;;;;;;;;;11.60;11.40;;;;;24.27;46.71;99430.19;5103992;28;8855;-76
2022/09/07 02:58:55;;;;;;;;;14.60;14.60;;;;;24.27;47.05;99427.53;5069362;28;8862;-77
2022/09/07 03:01:35;;;;;;;;;8.60;7.60;;;;;24.27;46.90;99422.19;5051823;28;8850;-75
2022/09/07 03:04:15;;;;;;;;;14.00;11.20;;;;;24.24;46.99;99419.69;5084589;28;8835;-75
2022/09/07 03:06:47;;;;;;;;;11.80;11.80;;;;;24.13;46.99;99414.13;5052380;28;8866;-78
2022/09/07 03:09:21;;;;;;;;;11.80;11.80;;;;;24.07;47.29;99414.50;5073611;28;8847;-76
2022/09/07 03:11:52;;;;;;;;;12.20;11.80;;;;;24.02;47.72;99412.09;5051464;28;8834;-76
2022/09/07 03:14:22;;;;;;;;;14.80;13.60;;;;;23.93;47.59;99415.28;5084369;28;8846;-77
2022/09/07 03:16:54;;;;;;;;;11.20;11.20;;;;;23.92;47.91;99409.09;5072398;28;8867;-76
2022/09/07 03:19:24;;;;;;;;;11.80;10.20;;;;;23.92;48.02;99417.09;5033872;28;8857;-77
2022/09/07 03:21:53;;;;;;;;;10.00;10.00;;;;;23.96;47.90;99416.94;5032362;28;8987;-78
2022/09/07 03:24:22;;;;;;;;;10.60;10.60;;;;;23.93;48.03;99412.63;5083927;28;9000;-77
2022/09/07 03:26:51;;;;;;;;;11.40;11.20;;;;;23.91;48.07;99412.72;5070145;28;9600;-78
2022/09/07 03:29:20;;;;;;;;;10.80;10.80;;;;;23.94;47.95;99411.69;5032276;28;8878;-75
2022/09/07 03:31:48;;;;;;;;;10.80;10.80;;;;;23.87;48.07;99408.50;5085393;28;8874;-77
2022/09/07 03:34:17;;;;;;;;;10.60;10.60;;;;;23.91;48.33;99406.53;5068651;28;8874;-76
2022/09/07 03:36:47;;;;;;;;;18.40;18.40;;;;;23.90;48.38;99403.00;5067008;28;8854;-77
2022/09/07 03:39:19;;;;;;;;;23.40;20.00;;;;;23.89;48.42;99400.44;5086785;28;8955;-76
2022/09/07 03:41:48;;;;;;;;;12.40;12.20;;;;;23.86;48.50;99397.97;5069680;28;8850;-74
2022/09/07 03:44:17;;;;;;;;;13.80;13.60;;;;;23.86;48.58;99393.50;5085176;28;8991;-77
2022/09/07 03:46:45;;;;;;;;;15.20;15.20;;;;;23.78;48.75;99390.38;5069430;28;8866;-77
2022/09/07 03:49:15;;;;;;;;;15.00;14.00;;;;;23.70;49.05;99396.13;5093704;28;9604;-75
2022/09/07 03:51:43;;;;;;;;;11.60;10.80;;;;;23.61;49.32;99390.47;5037503;28;8847;-77
2022/09/07 03:54:13;;;;;;;;;14.00;14.00;;;;;23.56;49.44;99396.06;5089742;28;8851;-78
2022/09/07 03:56:43;;;;;;;;;11.60;10.80;;;;;23.49;49.68;99400.03;5089635;28;8847;-75
2022/09/07 03:59:11;;;;;;;;;16.00;13.20;;;;;23.46;49.96;99400.19;5084995;28;8850;-79
2022/09/07 04:01:40;;;;;;;;;15.20;15.20;;;;;23.38;50.07;99397.94;5068483;28;8980;-76
2022/09/07 04:04:09;;;;;;;;;13.60;12.20;;;;;23.45;49.92;99401.13;5068995;28;8846;-78
2022/09/07 04:06:37;;;;;;;;;12.40;12.40;;;;;23.48;49.83;99407.16;5069543;28;8862;-74
2022/09/07 04:09:08;;;;;;;;;12.80;12.80;;;;;23.46;49.87;99401.06;5068785;28;8873;-78
2022/09/07 04:11:40;;;;;;;;;15.80;15.20;;;;;23.44;49.86;99408.28;5053269;28;9613;-76
2022/09/07 04:14:09;;;;;;;;;17.20;15.80;;;;;23.44;49.83;99402.06;5034579;28;8858;-79
2022/09/07 04:16:38;;;;;;;;;12.20;12.20;;;;;23.40;50.04;99406.69;5067422;28;8838;-77
2022/09/07 04:19:07;;;;;;;;;9.00;9.00;;;;;23.30;50.64;99416.16;5069478;28;8881;-75
2022/09/07 04:21:36;;;;;;;;;13.40;11.00;;;;;23.24;50.75;99412.03;5105789;27;8832;-76
2022/09/07 04:24:05;;;;;;;;;12.20;12.20;;;;;23.29;50.66;99412.63;5088220;28;8890;-77
2022/09/07 04:26:35;;;;;;;;;14.80;13.80;;;;;23.19;51.03;99411.41;5037997;28;8844;-79
2022/09/07 04:29:07;;;;;;;;;13.60;12.60;;;;;23.20;51.03;99413.16;5089201;28;8856;-77
2022/09/07 04:31:36;;;;;;;;;13.20;11.80;;;;;23.24;51.01;99408.50;5088737;28;8863;-78
2022/09/07 04:34:06;;;;;;;;;9.00;9.00;;;;;23.16;51.02;99409.78;5090062;28;8864;-76
2022/09/07 04:36:34;;;;;;;;;16.00;15.80;;;;;23.25;50.99;99415.53;5069305;28;8866;-78
2022/09/07 04:39:05;;;;;;;;;18.40;16.60;;;;;23.25;50.84;99412.88;5085876;28;8943;-78
2022/09/07 04:41:34;;;;;;;;;13.60;12.60;;;;;23.26;50.78;99396.84;5068160;28;8849;-75
2022/09/07 04:44:04;;;;;;;;;14.40;13.20;;;;;23.24;51.01;99404.03;5101023;28;8842;-75
2022/09/07 04:46:36;;;;;;;;;12.40;11.60;;;;;23.26;50.96;99398.66;5018027;28;9683;-77
2022/09/07 04:49:07;;;;;;;;;13.00;13.00;;;;;23.27;50.94;99401.22;5071003;28;8862;-76
2022/09/07 04:51:37;;;;;;;;;10.80;9.80;;;;;23.31;50.81;99401.91;5097924;28;8847;-77
2022/09/07 04:54:06;;;;;;;;;9.40;9.40;;;;;23.27;51.16;99409.22;5090185;28;8971;-75
2022/09/07 04:56:35;;;;;;;;;14.40;13.40;;;;;23.33;50.88;99403.53;5107225;28;8964;-76
2022/09/07 04:59:04;;;;;;;;;13.00;12.20;;;;;23.33;50.91;99408.88;5050921;28;8844;-74
2022/09/07 05:01:34;;;;;;;;;14.80;13.00;;;;;23.41;50.65;99411.09;5048891;28;8868;-74
2022/09/07 05:04:03;;;;;;;;;11.20;10.80;;;;;23.51;50.32;99420.28;5066611;28;9621;-76
2022/09/07 05:06:32;;;;;;;;;15.00;15.00;;;;;23.61;50.10;99420.63;5048020;28;8839;-78
2022/09/07 05:09:01;;;;;;;;;13.60;12.40;;;;;23.64;50.07;99417.78;5049726;28;8865;-75
2022/09/07 05:11:30;;;;;;;;;15.80;14.20;;;;;23.73;49.80;99422.59;5049680;28;8942;-78
2022/09/07 05:14:00;;;;;;;;;13.20;12.80;;;;;23.81;49.88;99422.19;5065639;28;8857;-77
2022/09/07 05:16:29;;;;;;;;;12.20;10.80;;;;;23.93;49.33;99420.63;5064538;28;8988;-76
2022/09/07 05:19:01;;;;;;;;;12.60;12.00;;;;;24.01;49.25;99421.03;5064812;28;9187;-77
2022/09/07 05:21:32;;;;;;;;;12.40;12.00;;;;;24.15;48.79;99414.06;5065228;28;8858;-75
2022/09/07 05:24:02;;;;;;;;;10.80;10.80;;;;;24.26;48.55;99416.94;5044951;28;8978;-77
2022/09/07 05:26:33;;;;;;;;;12.20;10.60;;;;;24.36;48.33;99418.09;5046720;28;8988;-76
2022/09/07 05:29:03;;;;;;;;;12.80;11.40;;;;;24.45;48.02;99412.22;5047772;28;8996;-75
2022/09/07 05:31:52;;;;;;;;;14.80;14.20;;;;;24.58;47.95;99416.84;5084409;28;8860;-77
2022/09/07 05:34:22;;;;;;;;;12.40;12.40;;;;;24.70;47.51;99424.09;5106549;28;8832;-78
2022/09/07 05:36:59;;;;;;;;;12.40;11.60;;;;;24.80;47.10;99419.94;5107067;28;8843;-78
2022/09/07 05:39:28;;;;;;;;;11.00;10.00;;;;;24.85;46.75;99423.16;5105461;28;8895;-77
2022/09/07 05:41:57;;;;;;;;;9.80;9.80;;;;;24.77;47.16;99427.25;5089551;28;8875;-76
2022/09/07 05:44:26;;;;;;;;;9.60;9.60;;;;;24.90;46.92;99428.22;5089901;28;8840;-77
2022/09/07 05:47:09;;;;;;;;;11.60;11.20;;;;;25.01;46.58;99422.19;5107045;28;8859;-76
2022/09/07 05:49:40;;;;;;;;;5.40;4.00;;;;;25.01;46.47;99428.41;5089811;28;8908;-77
2022/09/07 05:52:09;;;;;;;;;11.60;11.40;;;;;25.08;46.50;99428.88;5088642;28;8940;-75
2022/09/07 05:54:38;;;;;;;;;13.40;11.80;;;;;25.24;46.29;99432.34;5089329;28;8893;-76
2022/09/07 05:57:07;;;;;;;;;9.20;9.00;;;;;25.28;45.98;99425.84;5091921;28;8877;-77
2022/09/07 05:59:35;;;;;;;;;13.20;13.20;;;;;25.37;45.88;99442.22;5110177;28;8841;-77
2022/09/07 06:02:05;;;;;;;;;12.20;11.20;;;;;25.46;45.34;99446.97;5109847;28;8845;-77
2022/09/07 06:04:34;;;;;;;;;11.80;11.80;;;;;25.46;45.30;99442.53;5083446;28;8864;-76
2022/09/07 06:07:04;;;;;;;;;13.00;12.00;;;;;25.55;44.94;99450.88;5108203;28;8850;-76
2022/09/07 06:09:49;;;;;;;;;9.20;9.20;;;;;25.67;44.71;99442.06;5075703;28;8855;-78
2022/09/07 06:12:38;;;;;;;;;11.00;10.60;;;;;25.78;44.71;99436.03;5005648;28;8889;-78
2022/09/07 06:15:08;;;;;;;;;10.00;10.00;;;;;25.81;44.76;99443.88;5069995;28;8994;-77
2022/09/07 06:17:36;;;;;;;;;7.80;7.00;;;;;25.80;44.90;99445.69;5052810;28;8893;-77
2022/09/07 06:20:07;;;;;;;;;9.60;9.00;;;;;25.89;44.50;99438.88;5068065;28;8860;-79
2022/09/07 06:22:38;;;;;;;;;12.00;10.40;;;;;25.94;44.75;99438.63;5067673;28;8936;-77
2022/09/07 06:25:07;;;;;;;;;9.60;8.60;;;;;26.03;44.55;99435.31;5068051;28;9664;-75
2022/09/07 06:27:36;;;;;;;;;12.00;10.80;;;;;26.12;44.34;99436.50;5067686;28;9586;-76
2022/09/07 06:30:06;;;;;;;;;10.80;10.20;;;;;26.23;44.29;99436.66;5035887;28;8856;-76
2022/09/07 06:32:36;;;;;;;;;12.00;12.00;;;;;26.28;43.94;99447.06;5085517;28;8860;-78
2022/09/07 06:35:14;;;;;;;;;11.80;11.80;;;;;26.34;43.51;99450.16;5052560;28;8856;-78
2022/09/07 06:37:44;;;;;;;;;13.80;13.40;;;;;26.49;43.76;99450.09;5067969;28;8878;-77
2022/09/07 06:40:13;;;;;;;;;13.20;11.00;;;;;26.70;43.25;99447.78;5056284;28;8859;-77
2022/09/07 06:42:42;;;;;;;;;9.00;9.00;;;;;26.81;42.94;99451.44;5041080;28;9596;-76
2022/09/07 06:45:11;;;;;;;;;11.20;11.20;;;;;26.78;43.09;99453.47;5082577;28;8888;-76
2022/09/07 06:47:40;;;;;;;;;11.00;10.00;;;;;26.90;43.13;99452.63;5070427;28;8962;-76
2022/09/07 06:50:11;;;;;;;;;14.40;13.80;;;;;26.93;42.97;99462.25;5088276;28;8853;-77
2022/09/07 06:52:40;;;;;;;;;11.80;11.20;;;;;27.05;42.68;99450.66;5088420;28;9655;-77
2022/09/07 06:55:30;;;;;;;;;11.20;10.80;;;;;27.08;42.98;99455.81;5060561;28;8854;-76
2022/09/07 06:57:59;;;;;;;;;11.40;10.00;;;;;27.12;42.47;99453.78;5071062;28;8997;-77
2022/09/07 07:00:28;;;;;;;;;11.80;11.40;;;;;27.12;42.75;99461.81;5053072;28;8888;-77
2022/09/07 07:02:57;;;;;;;;;13.40;13.20;;;;;26.97;42.94;99461.06;5038467;28;8826;-76
2022/09/07 07:05:25;;;;;;;;;13.60;13.00;;;;;27.05;42.82;99466.72;5038241;28;8862;-79
2022/09/07 07:07:55;;;;;;;;;11.20;11.20;;;;;26.95;43.22;99466.50;5070070;28;8825;-78
2022/09/07 07:10:23;;;;;;;;;12.60;11.60;;;;;27.03;43.50;99474.00;5054248;28;8842;-78
2022/09/07 07:12:56;;;;;;;;;11.80;11.60;;;;;27.17;43.03;99473.91;5070628;28;8923;-76
2022/09/07 07:15:28;;;;;;;;;12.80;12.80;;;;;27.26;43.14;99475.13;5055479;28;8975;-77
2022/09/07 07:17:57;;;;;;;;;12.40;11.20;;;;;27.32;42.74;99473.81;5070653;28;8946;-76
2022/09/07 07:20:46;;;;;;;;;11.80;11.80;;;;;27.41;42.49;99478.50;5070725;28;8926;-77
2022/09/07 07:23:14;;;;;;;;;12.40;10.40;;;;;27.36;42.69;99478.84;5071731;28;8842;-77
2022/09/07 07:25:44;;;;;;;;;14.00;13.00;;;;;27.47;42.76;99478.06;5055191;28;8934;-77
2022/09/07 07:28:14;;;;;;;;;13.80;12.80;;;;;27.58;42.49;99486.19;5075773;28;8882;-80
2022/09/07 07:31:06;;;;;;;;;12.80;11.40;;;;;27.68;42.45;99488.22;5051796;28;8879;-74
2022/09/07 07:33:41;;;;;;;;;13.60;10.40;;;;;27.75;42.02;99494.81;5068116;28;9631;-77
2022/09/07 07:36:15;;;;;;;;;14.60;13.00;;;;;27.73;42.05;99496.75;5052645;28;8886;-78
2022/09/07 07:38:46;;;;;;;;;9.40;9.40;;;;;27.78;42.17;99508.00;5053554;28;8864;-77
2022/09/07 07:41:34;;;;;;;;;14.00;13.40;;;;;27.84;42.13;99504.88;5064761;28;8895;-82
2022/09/07 07:44:20;;;;;;;;;12.40;12.40;;;;;27.92;41.96;99502.53;5080469;28;8900;-75
2022/09/07 07:46:49;;;;;;;;;11.40;10.60;;;;;28.06;41.62;99506.88;5070458;28;8861;-79
2022/09/07 07:49:18;;;;;;;;;14.80;13.60;;;;;28.11;41.58;99511.88;5078951;28;8867;-75
2022/09/07 07:51:47;;;;;;;;;16.00;13.00;;;;;28.19;41.62;99518.41;5037501;28;8974;-74
2022/09/07 07:54:36;;;;;;;;;13.00;11.60;;;;;28.30;40.97;99522.97;5085633;28;8913;-81
2022/09/07 07:57:06;;;;;;;;;13.20;11.80;;;;;28.33;41.11;99530.75;5069574;28;8838;-78
2022/09/07 07:59:36;;;;;;;;;13.20;13.20;;;;;28.36;41.12;99525.19;5069377;28;8880;-80
2022/09/07 08:02:07;;;;;;;;;12.20;11.40;;;;;28.46;41.00;99525.34;5102174;27;8853;-75
2022/09/07 08:04:36;;;;;;;;;13.00;11.00;;;;;28.58;40.45;99527.16;5084989;28;8842;-77
2022/09/07 08:07:06;;;;;;;;;11.00;11.00;;;;;28.72;40.59;99522.56;5068136;28;8978;-79
2022/09/07 08:09:40;;;;;;;;;13.00;12.80;;;;;28.75;40.09;99528.53;5069249;28;8866;-77
2022/09/07 08:12:11;;;;;;;;;14.00;12.80;;;;;28.83;40.23;99521.72;5119396;27;8851;-78
2022/09/07 08:14:41;;;;;;;;;11.40;10.80;;;;;28.97;39.84;99529.56;5087839;28;8848;-77
2022/09/07 08:17:11;;;;;;;;;12.60;12.60;;;;;28.85;39.79;99517.94;5083970;28;8855;-76
2022/09/07 08:19:40;;;;;;;;;12.00;12.00;;;;;28.94;39.88;99521.72;5067957;28;8916;-76
2022/09/07 08:22:10;;;;;;;;;14.40;13.80;;;;;28.96;39.54;99509.94;5081998;28;8855;-78
2022/09/07 08:24:39;;;;;;;;;15.00;13.20;;;;;28.90;39.50;99515.78;5088997;28;8986;-77
2022/09/07 08:27:08;;;;;;;;;14.00;13.00;;;;;28.96;39.75;99517.09;5036822;28;8869;-75
2022/09/07 08:29:36;;;;;;;;;11.60;11.60;;;;;28.96;39.49;99512.59;5087748;28;8847;-79
2022/09/07 08:32:06;;;;;;;;;13.60;12.80;;;;;29.07;39.49;99513.59;5087345;28;8862;-79
2022/09/07 08:34:36;;;;;;;;;11.00;11.00;;;;;29.08;39.69;99510.78;5087650;28;9083;-78
2022/09/07 08:37:05;;;;;;;;;10.00;10.00;;;;;29.08;39.68;99510.78;5086790;28;8839;-79
2022/09/07 08:39:34;;;;;;;;;12.20;11.60;;;;;29.22;39.45;99506.19;5087800;28;8867;-78
2022/09/07 08:42:15;;;;;;;;;13.00;12.20;;;;;29.31;39.38;99509.00;5088086;28;8901;-77
2022/09/07 08:44:48;;;;;;;;;12.00;12.00;;;;;29.33;39.80;99515.09;5087249;28;8844;-79
2022/09/07 08:47:29;;;;;;;;;10.40;10.40;;;;;29.34;39.73;99507.94;5086396;28;10294;-79
2022/09/07 08:50:04;;;;;;;;;12.60;11.80;;;;;29.25;39.69;99506.81;5084554;28;8852;-80
2022/09/07 08:52:42;;;;;;;;;13.00;12.60;;;;;29.35;39.21;99501.56;5091155;28;8875;-80
2022/09/07 08:55:16;;;;;;;;;12.40;12.40;;;;;29.43;39.43;99504.47;5083917;28;8848;-78
2022/09/07 08:57:50;;;;;;;;;12.40;11.20;;;;;29.51;39.56;99501.22;5086812;28;10142;-80
2022/09/07 09:00:19;;;;;;;;;12.00;10.80;;;;;29.58;39.13;99491.66;5090750;28;8827;-77
2022/09/07 09:02:50;;;;;;;;;13.40;13.00;;;;;29.66;39.15;99488.34;5090157;28;8962;-79
2022/09/07 09:05:53;;;;;;;;;13.60;13.60;;;;;29.80;39.52;99482.75;5075623;28;8862;-79
2022/09/07 09:08:33;;;;;;;;;14.20;13.00;;;;;29.65;38.94;99481.28;5089078;28;8844;-79
2022/09/07 09:11:08;;;;;;;;;10.60;10.60;;;;;29.61;39.08;99469.06;5085912;28;8894;-79
2022/09/07 09:13:51;;;;;;;;;12.60;12.20;;;;;29.65;39.62;99474.06;5088713;28;8856;-80
2022/09/07 09:16:28;;;;;;;;;14.00;12.60;;;;;29.65;39.35;99475.91;5071587;28;8936;-77
2022/09/07 09:19:14;;;;;;;;;14.60;14.20;;;;;29.73;39.76;99479.69;5072766;28;8992;-79
2022/09/07 09:21:43;;;;;;;;;13.80;12.60;;;;;29.68;39.75;99478.31;5091735;28;8844;-78
2022/09/07 09:24:16;;;;;;;;;15.60;14.80;;;;;29.67;39.88;99479.31;5069681;28;8856;-79
2022/09/07 09:26:50;;;;;;;;;17.20;16.40;;;;;29.61;39.90;99480.66;5088001;28;8828;-78
2022/09/07 09:29:23;;;;;;;;;14.20;14.20;;;;;29.54;39.94;99479.44;5039548;28;8856;-77
2022/09/07 09:31:52;;;;;;;;;14.60;13.80;;;;;29.45;40.02;99480.19;5085688;28;8877;-76
2022/09/07 09:34:22;;;;;;;;;14.80;14.40;;;;;29.44;40.57;99484.72;5090676;28;8840;-76
2022/09/07 09:36:56;;;;;;;;;16.00;15.60;;;;;29.46;40.65;99479.22;5093910;28;8836;-76
2022/09/07 09:39:31;;;;;;;;;13.40;13.40;;;;;29.42;40.99;99473.22;5090460;28;8848;-73
2022/09/07 09:42:14;;;;;;;;;16.40;15.80;;;;;29.34;41.15;99462.25;5094465;28;8839;-75
2022/09/07 09:44:43;;;;;;;;;15.80;14.20;;;;;29.23;41.28;99465.78;5089839;28;8863;-76
2022/09/07 09:47:26;;;;;;;;;14.20;12.80;;;;;29.39;41.18;99468.09;5090691;28;9711;-75
2022/09/07 09:50:03;;;;;;;;;16.00;14.40;;;;;29.43;41.77;99461.50;5072598;28;8840;-75
2022/09/07 09:52:35;;;;;;;;;12.60;12.40;;;;;29.46;41.32;99461.25;5085759;28;8840;-75
2022/09/07 09:55:24;;;;;;;;;14.80;14.80;;;;;29.59;40.36;99462.97;5088294;28;8856;-76
2022/09/07 09:58:29;;;;;;;;;17.80;16.80;;;;;29.71;40.59;99470.00;5088171;28;8863;-74
2022/09/07 10:01:23;;;;;;;;;15.00;14.00;;;;;29.59;40.99;99468.34;5087582;28;8876;-76
2022/09/07 10:03:53;;;;;;;;;14.00;14.00;;;;;29.59;40.86;99469.19;5088540;28;8937;-80
2022/09/07 10:06:28;;;;;;;;;15.40;14.60;;;;;29.69;40.41;99467.44;5026710;28;8966;-77
2022/09/07 10:09:00;;;;;;;;;14.00;14.00;;;;;29.72;40.50;99464.53;5089165;28;8856;-79
2022/09/07 10:11:44;;;;;;;;;16.20;15.80;;;;;29.88;40.87;99457.91;5075489;28;8852;-78
2022/09/07 10:14:36;;;;;;;;;16.80;15.60;;;;;29.88;40.42;99455.22;5095160;28;8875;-79
2022/09/07 10:17:18;;;;;;;;;14.80;14.80;;;;;29.96;39.19;99459.97;5080429;28;8869;-79
2022/09/07 10:19:48;;;;;;;;;17.00;16.80;;;;;30.01;39.17;99455.91;5091632;28;8863;-78
2022/09/07 10:22:35;;;;;;;;;21.00;17.80;;;;;30.22;39.11;99450.56;5091444;28;8846;-78
2022/09/07 10:25:28;;;;;;;;;11.20;11.00;;;;;30.18;38.99;99451.81;5085313;28;8844;-79
2022/09/07 10:28:06;;;;;;;;;17.00;17.00;;;;;30.35;38.59;99454.97;5071390;28;8875;-80
2022/09/07 10:30:45;;;;;;;;;15.60;15.00;;;;;30.39;38.33;99448.34;5076172;28;8846;-79
2022/09/07 10:33:18;;;;;;;;;16.80;15.60;;;;;30.47;39.36;99452.09;5107779;27;8886;-80
2022/09/07 10:35:54;;;;;;;;;13.80;13.60;;;;;30.61;38.80;99450.06;5090184;28;8847;-79
2022/09/07 10:38:24;;;;;;;;;14.60;14.60;;;;;30.70;38.12;99449.28;5097552;28;8890;-78
2022/09/07 10:41:02;;;;;;;;;18.00;17.20;;;;;30.39;38.24;99443.78;5111095;27;8898;-78
2022/09/07 10:43:43;;;;;;;;;15.20;13.60;;;;;30.02;39.40;99448.69;5091525;28;9104;-78
2022/09/07 10:46:34;;;;;;;;;16.60;16.60;;;;;30.04;40.51;99444.91;5088414;28;8863;-72
2022/09/07 10:49:27;;;;;;;;;18.40;16.00;;;;;30.48;40.45;99444.88;5083816;28;8960;-73
2022/09/07 10:52:09;;;;;;;;;16.20;14.60;;;;;30.82;38.53;99447.34;5090321;28;8852;-72
2022/09/07 10:54:49;;;;;;;;;16.40;16.00;;;;;30.94;37.85;99443.59;5070091;28;9701;-74
2022/09/07 10:57:32;;;;;;;;;16.20;15.40;;;;;31.18;36.79;99446.00;5069848;28;8858;-74
2022/09/07 11:00:07;;;;;;;;;14.80;14.40;;;;;31.37;37.88;99437.13;5070378;28;8953;-73
2022/09/07 11:02:59;;;;;;;;;14.80;14.80;;;;;31.66;37.70;99439.06;5077357;28;8867;-73
2022/09/07 11:06:05;;;;;;;;;17.40;17.40;;;;;31.95;37.58;99432.88;5073988;28;8937;-73
2022/09/07 11:08:45;;;;;;;;;14.20;13.20;;;;;32.22;36.64;99435.75;5085007;28;8858;-73
2022/09/07 11:11:41;;;;;;;;;19.80;19.20;;;;;32.31;34.46;99431.34;5089390;28;8855;-73
2022/09/07 11:14:35;;;;;;;;;21.60;19.60;;;;;32.37;33.66;99433.47;5073057;28;8994;-71
2022/09/07 11:17:12;;;;;;;;;17.80;17.80;;;;;32.39;33.26;99430.63;5084923;28;8870;-74
2022/09/07 11:19:49;;;;;;;;;22.60;19.80;;;;;32.15;33.58;99431.06;5077910;28;8843;-74
2022/09/07 11:22:27;;;;;;;;;19.60;19.00;;;;;31.78;33.90;99431.75;5075106;28;8858;-74
2022/09/07 11:25:04;;;;;;;;;22.20;20.40;;;;;31.92;33.86;99423.22;5070417;28;8907;-75
2022/09/07 11:27:57;;;;;;;;;19.60;18.20;;;;;32.62;33.75;99417.69;5079751;28;8882;-74
2022/09/07 11:30:31;;;;;;;;;18.40;17.00;;;;;33.06;32.63;99423.38;5089027;28;8867;-75
2022/09/07 11:33:05;;;;;;;;;20.80;18.60;;;;;33.55;31.80;99418.59;5074142;28;8873;-74
2022/09/07 11:35:39;;;;;;;;;21.60;20.00;;;;;33.95;31.01;99413.81;5089952;28;8852;-72
2022/09/07 11:38:14;;;;;;;;;19.40;17.80;;;;;34.40;29.66;99406.63;5084141;28;8958;-75
2022/09/07 11:40:55;;;;;;;;;20.80;18.80;;;;;34.82;30.63;99408.63;5033746;28;8846;-72
2022/09/07 11:43:30;;;;;;;;;19.40;18.00;;;;;33.90;29.68;99410.75;5070158;28;8851;-73
2022/09/07 11:46:04;;;;;;;;;17.00;16.00;;;;;34.11;29.24;99408.56;5068610;28;8818;-73
2022/09/07 11:48:38;;;;;;;;;14.40;14.40;;;;;34.46;29.10;99411.41;5068652;28;9008;-73
2022/09/07 11:51:15;;;;;;;;;19.40;18.40;;;;;34.78;30.22;99399.94;5048853;28;8889;-75
2022/09/07 11:53:46;;;;;;;;;13.40;13.40;;;;;34.89;28.90;99399.69;5068661;28;8862;-74
2022/09/07 11:56:23;;;;;;;;;18.00;18.00;;;;;35.19;29.68;99397.50;5069495;28;8838;-73
2022/09/07 11:59:18;;;;;;;;;18.00;16.60;;;;;35.43;29.76;99395.88;5065730;28;9667;-75